PWSweather.com
Personal Weather Stations
Station Observations
KIDNAMPA57
Canyon County Idaho, Nampa, ID 83687

Canyon County IdahoNampa, ID 83687

Lat: 43.587235, Lon: -116.49831979999999

Elevation: 2615

Station Type: Davis Vantage Pro 2

www.rockinglweather.com

High Low Average
Temperature 73.9°F23.3°C 56.2°F13.4°C 64.5°F18.1°C
Dew Point 54.3°F12.4°C 40.5°F4.7°C 47.3°F8.5°C
Winds 16.0 mph 25.7 kmh Calm Calm 4.0 mph WNW6.4 kmh WNW
Wind Gusts 19.0 mph30.6 kmh -- 8.0 mph12.9 kmh
Humidity 88% 32% 55%
Pressure 30.09 in1019.0 mb 29.88 in1011.9 mb -
Precipitation 0.00 in0.0 mm - -
Hour Temp Dew Point Humidity Winds Wind Gusts Pressure Precip Precip Rate Daily Precip Total
12:00 AM 61.3°F16.3°C 47.8°F8.8°C 61% Calm Calm 4.0 mph6.4 kmh 29.88 in1011.9 mb 0.00 in0.0 mm 0.00 in0.0 mm 0.00 in0.0 mm
12:05 AM 61.1°F16.2°C 47.6°F8.7°C 61% Calm Calm 1.0 mph1.6 kmh 29.88 in1011.9 mb 0.00 in0.0 mm 0.00 in0.0 mm 0.00 in0.0 mm
12:10 AM 61.5°F16.4°C 47.5°F8.6°C 60% 2.0 mph W3.2 kmh W 4.0 mph6.4 kmh 29.88 in1011.9 mb 0.00 in0.0 mm 0.00 in0.0 mm 0.00 in0.0 mm
12:15 AM 61.8°F16.6°C 47.3°F8.5°C 59% 1.0 mph NW1.6 kmh NW 4.0 mph6.4 kmh 29.88 in1011.9 mb 0.00 in0.0 mm 0.00 in0.0 mm 0.00 in0.0 mm
12:20 AM 62.2°F16.8°C 47.3°F8.5°C 58% 3.0 mph NW4.8 kmh NW 5.0 mph8.0 kmh 29.88 in1011.9 mb 0.00 in0.0 mm 0.00 in0.0 mm 0.00 in0.0 mm
12:25 AM 62.4°F16.9°C 47.5°F8.6°C 58% 4.0 mph WNW6.4 kmh WNW 7.0 mph11.3 kmh 29.88 in1011.9 mb 0.00 in0.0 mm 0.00 in0.0 mm 0.00 in0.0 mm
12:30 AM 62.4°F16.9°C 47.5°F8.6°C 58% 6.0 mph NW9.7 kmh NW 7.0 mph11.3 kmh 29.89 in1012.2 mb 0.00 in0.0 mm 0.00 in0.0 mm 0.00 in0.0 mm
12:35 AM 62.4°F16.9°C 47.5°F8.6°C 58% 2.0 mph NW3.2 kmh NW 5.0 mph8.0 kmh 29.89 in1012.2 mb 0.00 in0.0 mm 0.00 in0.0 mm 0.00 in0.0 mm
12:40 AM 62.3°F16.8°C 47.4°F8.6°C 58% Calm Calm 6.0 mph9.7 kmh 29.88 in1011.9 mb 0.00 in0.0 mm 0.00 in0.0 mm 0.00 in0.0 mm
12:45 AM 62.2°F16.8°C 47.3°F8.5°C 58% 4.0 mph NW6.4 kmh NW 6.0 mph9.7 kmh 29.89 in1012.2 mb 0.00 in0.0 mm 0.00 in0.0 mm 0.00 in0.0 mm
12:50 AM 62.2°F16.8°C 47.3°F8.5°C 58% 2.0 mph NW3.2 kmh NW 5.0 mph8.0 kmh 29.89 in1012.2 mb 0.00 in0.0 mm 0.00 in0.0 mm 0.00 in0.0 mm
12:55 AM 62.1°F16.7°C 47.2°F8.4°C 58% 1.0 mph NW1.6 kmh NW 5.0 mph8.0 kmh 29.89 in1012.2 mb 0.00 in0.0 mm 0.00 in0.0 mm 0.00 in0.0 mm
01:00 AM 62.2°F16.8°C 47.3°F8.5°C 58% Calm Calm 5.0 mph8.0 kmh 29.89 in1012.2 mb 0.00 in0.0 mm 0.00 in0.0 mm 0.00 in0.0 mm
01:05 AM 62.2°F16.8°C 46.8°F8.2°C 57% 2.0 mph WNW3.2 kmh WNW 5.0 mph8.0 kmh 29.89 in1012.2 mb 0.00 in0.0 mm 0.00 in0.0 mm 0.00 in0.0 mm
01:10 AM 62.3°F16.8°C 46.9°F8.3°C 57% Calm Calm 5.0 mph8.0 kmh 29.89 in1012.2 mb 0.00 in0.0 mm 0.00 in0.0 mm 0.00 in0.0 mm
01:15 AM 62.1°F16.7°C 47.2°F8.4°C 58% 1.0 mph WSW1.6 kmh WSW 5.0 mph8.0 kmh 29.89 in1012.2 mb 0.00 in0.0 mm 0.00 in0.0 mm 0.00 in0.0 mm
01:20 AM 61.8°F16.6°C 47.8°F8.8°C 60% Calm Calm 3.0 mph4.8 kmh 29.89 in1012.2 mb 0.00 in0.0 mm 0.00 in0.0 mm 0.00 in0.0 mm
01:25 AM 61.5°F16.4°C 47.5°F8.6°C 60% 2.0 mph WSW3.2 kmh WSW 5.0 mph8.0 kmh 29.89 in1012.2 mb 0.00 in0.0 mm 0.00 in0.0 mm 0.00 in0.0 mm
01:30 AM 61.7°F16.5°C 47.2°F8.4°C 59% Calm Calm 5.0 mph8.0 kmh 29.89 in1012.2 mb 0.00 in0.0 mm 0.00 in0.0 mm 0.00 in0.0 mm
01:35 AM 61.9°F16.6°C 47.4°F8.6°C 59% Calm Calm 4.0 mph6.4 kmh 29.89 in1012.2 mb 0.00 in0.0 mm 0.00 in0.0 mm 0.00 in0.0 mm
01:40 AM 61.9°F16.6°C 47.0°F8.3°C 58% 1.0 mph W1.6 kmh W 4.0 mph6.4 kmh 29.89 in1012.2 mb 0.00 in0.0 mm 0.00 in0.0 mm 0.00 in0.0 mm
01:45 AM 61.7°F16.5°C 47.7°F8.7°C 60% 1.0 mph WSW1.6 kmh WSW 4.0 mph6.4 kmh 29.89 in1012.2 mb 0.00 in0.0 mm 0.00 in0.0 mm 0.00 in0.0 mm
01:50 AM 61.5°F16.4°C 47.9°F8.8°C 61% 3.0 mph WSW4.8 kmh WSW 3.0 mph4.8 kmh 29.88 in1011.9 mb 0.00 in0.0 mm 0.00 in0.0 mm 0.00 in0.0 mm
01:55 AM 61.5°F16.4°C 47.9°F8.8°C 61% 1.0 mph W1.6 kmh W 5.0 mph8.0 kmh 29.88 in1011.9 mb 0.00 in0.0 mm 0.00 in0.0 mm 0.00 in0.0 mm
02:00 AM 61.3°F16.3°C 47.8°F8.8°C 61% 3.0 mph WSW4.8 kmh WSW 5.0 mph8.0 kmh 29.88 in1011.9 mb 0.00 in0.0 mm 0.00 in0.0 mm 0.00 in0.0 mm
02:05 AM 61.3°F16.3°C 47.8°F8.8°C 61% Calm Calm 2.0 mph3.2 kmh 29.88 in1011.9 mb 0.00 in0.0 mm 0.00 in0.0 mm 0.00 in0.0 mm
02:10 AM 61.3°F16.3°C 47.8°F8.8°C 61% Calm Calm 2.0 mph3.2 kmh 29.88 in1011.9 mb 0.00 in0.0 mm 0.00 in0.0 mm 0.00 in0.0 mm
02:15 AM 61.3°F16.3°C 47.8°F8.8°C 61% 2.0 mph NNW3.2 kmh NNW 3.0 mph4.8 kmh 29.88 in1011.9 mb 0.00 in0.0 mm 0.00 in0.0 mm 0.00 in0.0 mm
02:20 AM 61.3°F16.3°C 47.8°F8.8°C 61% 2.0 mph W3.2 kmh W 4.0 mph6.4 kmh 29.88 in1011.9 mb 0.00 in0.0 mm 0.00 in0.0 mm 0.00 in0.0 mm
02:25 AM 61.3°F16.3°C 47.8°F8.8°C 61% 2.0 mph NW3.2 kmh NW 4.0 mph6.4 kmh 29.88 in1011.9 mb 0.00 in0.0 mm 0.00 in0.0 mm 0.00 in0.0 mm
02:30 AM 61.3°F16.3°C 47.8°F8.8°C 61% Calm Calm 4.0 mph6.4 kmh 29.88 in1011.9 mb 0.00 in0.0 mm 0.00 in0.0 mm 0.00 in0.0 mm
02:35 AM 61.2°F16.2°C 48.1°F8.9°C 62% 1.0 mph WNW1.6 kmh WNW 4.0 mph6.4 kmh 29.88 in1011.9 mb 0.00 in0.0 mm 0.00 in0.0 mm 0.00 in0.0 mm
02:40 AM 60.9°F16.1°C 48.2°F9.0°C 63% Calm Calm 4.0 mph6.4 kmh 29.88 in1011.9 mb 0.00 in0.0 mm 0.00 in0.0 mm 0.00 in0.0 mm
02:45 AM 60.6°F15.9°C 48.4°F9.1°C 64% Calm Calm 4.0 mph6.4 kmh 29.89 in1012.2 mb 0.00 in0.0 mm 0.00 in0.0 mm 0.00 in0.0 mm
02:50 AM 60.5°F15.8°C 48.3°F9.1°C 64% Calm Calm 2.0 mph3.2 kmh 29.88 in1011.9 mb 0.00 in0.0 mm 0.00 in0.0 mm 0.00 in0.0 mm
02:55 AM 60.5°F15.8°C 48.3°F9.1°C 64% Calm Calm 2.0 mph3.2 kmh 29.89 in1012.2 mb 0.00 in0.0 mm 0.00 in0.0 mm 0.00 in0.0 mm
03:00 AM 60.5°F15.8°C 48.3°F9.1°C 64% 1.0 mph WNW1.6 kmh WNW 2.0 mph3.2 kmh 29.89 in1012.2 mb 0.00 in0.0 mm 0.00 in0.0 mm 0.00 in0.0 mm
03:05 AM 60.6°F15.9°C 48.4°F9.1°C 64% Calm Calm 5.0 mph8.0 kmh 29.89 in1012.2 mb 0.00 in0.0 mm 0.00 in0.0 mm 0.00 in0.0 mm
03:10 AM 60.6°F15.9°C 48.8°F9.3°C 65% Calm Calm 5.0 mph8.0 kmh 29.89 in1012.2 mb 0.00 in0.0 mm 0.00 in0.0 mm 0.00 in0.0 mm
03:15 AM 60.5°F15.8°C 48.3°F9.1°C 64% Calm Calm 5.0 mph8.0 kmh 29.89 in1012.2 mb 0.00 in0.0 mm 0.00 in0.0 mm 0.00 in0.0 mm
03:20 AM 60.5°F15.8°C 48.7°F9.3°C 65% Calm Calm 4.0 mph6.4 kmh 29.89 in1012.2 mb 0.00 in0.0 mm 0.00 in0.0 mm 0.00 in0.0 mm
03:25 AM 60.4°F15.8°C 48.2°F9.0°C 64% Calm Calm 4.0 mph6.4 kmh 29.89 in1012.2 mb 0.00 in0.0 mm 0.00 in0.0 mm 0.00 in0.0 mm
03:30 AM 60.5°F15.8°C 48.3°F9.1°C 64% Calm Calm 4.0 mph6.4 kmh 29.89 in1012.2 mb 0.00 in0.0 mm 0.00 in0.0 mm 0.00 in0.0 mm
03:35 AM 60.5°F15.8°C 48.3°F9.1°C 64% Calm Calm 1.0 mph1.6 kmh 29.89 in1012.2 mb 0.00 in0.0 mm 0.00 in0.0 mm 0.00 in0.0 mm
03:40 AM 60.5°F15.8°C 48.3°F9.1°C 64% Calm Calm 2.0 mph3.2 kmh 29.89 in1012.2 mb 0.00 in0.0 mm 0.00 in0.0 mm 0.00 in0.0 mm
03:45 AM 60.5°F15.8°C 48.7°F9.3°C 65% Calm Calm 2.0 mph3.2 kmh 29.89 in1012.2 mb 0.00 in0.0 mm 0.00 in0.0 mm 0.00 in0.0 mm
03:50 AM 60.6°F15.9°C 48.4°F9.1°C 64% Calm Calm 3.0 mph4.8 kmh 29.89 in1012.2 mb 0.00 in0.0 mm 0.00 in0.0 mm 0.00 in0.0 mm
03:55 AM 60.5°F15.8°C 48.3°F9.1°C 64% Calm Calm 3.0 mph4.8 kmh 29.89 in1012.2 mb 0.00 in0.0 mm 0.00 in0.0 mm 0.00 in0.0 mm
04:00 AM 60.3°F15.7°C 48.5°F9.2°C 65% Calm Calm 3.0 mph4.8 kmh 29.89 in1012.2 mb 0.00 in0.0 mm 0.00 in0.0 mm 0.00 in0.0 mm
04:05 AM 60.0°F15.6°C 48.6°F9.2°C 66% Calm Calm -- 29.88 in1011.9 mb 0.00 in0.0 mm 0.00 in0.0 mm 0.00 in0.0 mm
04:10 AM 59.8°F15.4°C 48.8°F9.3°C 67% Calm Calm 3.0 mph4.8 kmh 29.88 in1011.9 mb 0.00 in0.0 mm 0.00 in0.0 mm 0.00 in0.0 mm
04:15 AM 59.5°F15.3°C 48.9°F9.4°C 68% Calm Calm 3.0 mph4.8 kmh 29.89 in1012.2 mb 0.00 in0.0 mm 0.00 in0.0 mm 0.00 in0.0 mm
04:20 AM 59.5°F15.3°C 48.9°F9.4°C 68% Calm Calm 2.0 mph3.2 kmh 29.89 in1012.2 mb 0.00 in0.0 mm 0.00 in0.0 mm 0.00 in0.0 mm
04:25 AM 59.7°F15.4°C 49.1°F9.5°C 68% Calm Calm 2.0 mph3.2 kmh 29.89 in1012.2 mb 0.00 in0.0 mm 0.00 in0.0 mm 0.00 in0.0 mm
04:30 AM 59.6°F15.3°C 48.6°F9.2°C 67% Calm Calm 2.0 mph3.2 kmh 29.88 in1011.9 mb 0.00 in0.0 mm 0.00 in0.0 mm 0.00 in0.0 mm
04:35 AM 59.8°F15.4°C 48.8°F9.3°C 67% Calm Calm 2.0 mph3.2 kmh 29.88 in1011.9 mb 0.00 in0.0 mm 0.00 in0.0 mm 0.00 in0.0 mm
04:40 AM 60.0°F15.6°C 48.6°F9.2°C 66% Calm Calm 2.0 mph3.2 kmh 29.88 in1011.9 mb 0.00 in0.0 mm 0.00 in0.0 mm 0.00 in0.0 mm
04:45 AM 60.2°F15.7°C 48.4°F9.1°C 65% 1.0 mph WNW1.6 kmh WNW 3.0 mph4.8 kmh 29.88 in1011.9 mb 0.00 in0.0 mm 0.00 in0.0 mm 0.00 in0.0 mm
04:50 AM 60.4°F15.8°C 48.2°F9.0°C 64% 1.0 mph NW1.6 kmh NW 5.0 mph8.0 kmh 29.89 in1012.2 mb 0.00 in0.0 mm 0.00 in0.0 mm 0.00 in0.0 mm
04:55 AM 60.5°F15.8°C 47.9°F8.8°C 63% 3.0 mph NW4.8 kmh NW 5.0 mph8.0 kmh 29.89 in1012.2 mb 0.00 in0.0 mm 0.00 in0.0 mm 0.00 in0.0 mm
05:00 AM 60.6°F15.9°C 48.0°F8.9°C 63% 1.0 mph NW1.6 kmh NW 5.0 mph8.0 kmh 29.89 in1012.2 mb 0.00 in0.0 mm 0.00 in0.0 mm 0.00 in0.0 mm
05:05 AM 60.7°F15.9°C 48.1°F8.9°C 63% Calm Calm 2.0 mph3.2 kmh 29.89 in1012.2 mb 0.00 in0.0 mm 0.00 in0.0 mm 0.00 in0.0 mm
05:10 AM 60.7°F15.9°C 48.1°F8.9°C 63% Calm Calm 5.0 mph8.0 kmh 29.89 in1012.2 mb 0.00 in0.0 mm 0.00 in0.0 mm 0.00 in0.0 mm
05:15 AM 60.7°F15.9°C 47.6°F8.7°C 62% 3.0 mph NW4.8 kmh NW 5.0 mph8.0 kmh 29.89 in1012.2 mb 0.00 in0.0 mm 0.00 in0.0 mm 0.00 in0.0 mm
05:20 AM 60.8°F16.0°C 47.7°F8.7°C 62% 2.0 mph NW3.2 kmh NW 3.0 mph4.8 kmh 29.89 in1012.2 mb 0.00 in0.0 mm 0.00 in0.0 mm 0.00 in0.0 mm
05:30 AM 60.8°F16.0°C 47.3°F8.5°C 61% 1.0 mph NW1.6 kmh NW 6.0 mph9.7 kmh 29.89 in1012.2 mb 0.00 in0.0 mm 0.00 in0.0 mm 0.00 in0.0 mm
05:40 AM 60.8°F16.0°C 48.6°F9.2°C 64% Calm Calm 4.0 mph6.4 kmh 29.89 in1012.2 mb 0.00 in0.0 mm 0.00 in0.0 mm 0.00 in0.0 mm
05:45 AM 60.5°F15.8°C 50.7°F10.4°C 70% Calm Calm 4.0 mph6.4 kmh 29.89 in1012.2 mb 0.00 in0.0 mm 0.00 in0.0 mm 0.00 in0.0 mm
05:50 AM 59.9°F15.5°C 50.5°F10.3°C 71% Calm Calm -- 29.89 in1012.2 mb 0.00 in0.0 mm 0.00 in0.0 mm 0.00 in0.0 mm
06:00 AM 59.4°F15.2°C 50.4°F10.2°C 72% Calm Calm -- 29.90 in1012.5 mb 0.00 in0.0 mm 0.00 in0.0 mm 0.00 in0.0 mm
06:10 AM 59.4°F15.2°C 49.6°F9.8°C 70% Calm Calm 2.0 mph3.2 kmh 29.90 in1012.5 mb 0.00 in0.0 mm 0.00 in0.0 mm 0.00 in0.0 mm
06:15 AM 59.2°F15.1°C 50.2°F10.1°C 72% Calm Calm 2.0 mph3.2 kmh 29.90 in1012.5 mb 0.00 in0.0 mm 0.00 in0.0 mm 0.00 in0.0 mm
06:20 AM 58.5°F14.7°C 49.9°F9.9°C 73% Calm Calm -- 29.90 in1012.5 mb 0.00 in0.0 mm 0.00 in0.0 mm 0.00 in0.0 mm
06:25 AM 58.3°F14.6°C 50.1°F10.1°C 74% Calm Calm 2.0 mph3.2 kmh 29.90 in1012.5 mb 0.00 in0.0 mm 0.00 in0.0 mm 0.00 in0.0 mm
06:30 AM 58.2°F14.6°C 49.6°F9.8°C 73% Calm Calm 2.0 mph3.2 kmh 29.90 in1012.5 mb 0.00 in0.0 mm 0.00 in0.0 mm 0.00 in0.0 mm
06:35 AM 58.4°F14.7°C 50.2°F10.1°C 74% Calm Calm -- 29.90 in1012.5 mb 0.00 in0.0 mm 0.00 in0.0 mm 0.00 in0.0 mm
06:40 AM 58.9°F14.9°C 49.9°F9.9°C 72% Calm Calm -- 29.91 in1012.9 mb 0.00 in0.0 mm 0.00 in0.0 mm 0.00 in0.0 mm
06:45 AM 58.9°F14.9°C 50.3°F10.2°C 73% 1.0 mph NW1.6 kmh NW 2.0 mph3.2 kmh 29.91 in1012.9 mb 0.00 in0.0 mm 0.00 in0.0 mm 0.00 in0.0 mm
06:50 AM 58.4°F14.7°C 50.9°F10.5°C 76% Calm Calm 3.0 mph4.8 kmh 29.92 in1013.2 mb 0.00 in0.0 mm 0.00 in0.0 mm 0.00 in0.0 mm
06:55 AM 57.9°F14.4°C 50.4°F10.2°C 76% 1.0 mph W1.6 kmh W 3.0 mph4.8 kmh 29.92 in1013.2 mb 0.01 in0.3 mm 0.12 in3.0 mm 0.01 in0.3 mm
07:00 AM 57.5°F14.2°C 51.1°F10.6°C 79% Calm Calm 3.0 mph4.8 kmh 29.92 in1013.2 mb 0.01 in0.3 mm 0.00 in0.0 mm 0.01 in0.3 mm
07:05 AM 56.7°F13.7°C 50.9°F10.5°C 81% Calm Calm -- 29.92 in1013.2 mb 0.03 in0.8 mm 0.24 in6.1 mm 0.03 in0.8 mm
07:10 AM 56.3°F13.5°C 51.2°F10.7°C 83% Calm Calm -- 29.92 in1013.2 mb 0.03 in0.8 mm 0.00 in0.0 mm 0.03 in0.8 mm
07:15 AM 56.3°F13.5°C 51.5°F10.8°C 84% Calm Calm -- 29.92 in1013.2 mb 0.03 in0.8 mm 0.00 in0.0 mm 0.03 in0.8 mm
07:20 AM 56.3°F13.5°C 52.2°F11.2°C 86% Calm Calm -- 29.92 in1013.2 mb 0.03 in0.8 mm 0.00 in0.0 mm 0.03 in0.8 mm
07:25 AM 56.6°F13.7°C 52.8°F11.6°C 87% Calm Calm -- 29.92 in1013.2 mb 0.03 in0.8 mm 0.00 in0.0 mm 0.03 in0.8 mm
07:30 AM 56.8°F13.8°C 53.0°F11.7°C 87% Calm Calm -- 29.92 in1013.2 mb 0.03 in0.8 mm 0.00 in0.0 mm 0.03 in0.8 mm
07:35 AM 56.9°F13.8°C 53.1°F11.7°C 87% Calm Calm -- 29.92 in1013.2 mb 0.03 in0.8 mm 0.00 in0.0 mm 0.03 in0.8 mm
07:40 AM 57.1°F13.9°C 53.3°F11.8°C 87% Calm Calm -- 29.92 in1013.2 mb 0.03 in0.8 mm 0.00 in0.0 mm 0.03 in0.8 mm
07:45 AM 57.4°F14.1°C 53.6°F12.0°C 87% Calm Calm -- 29.93 in1013.5 mb 0.03 in0.8 mm 0.00 in0.0 mm 0.03 in0.8 mm
07:50 AM 57.8°F14.3°C 54.3°F12.4°C 88% Calm Calm -- 29.93 in1013.5 mb 0.03 in0.8 mm 0.00 in0.0 mm 0.03 in0.8 mm
07:55 AM 58.1°F14.5°C 53.9°F12.2°C 86% Calm Calm -- 29.93 in1013.5 mb 0.03 in0.8 mm 0.00 in0.0 mm 0.03 in0.8 mm
08:00 AM 58.5°F14.7°C 53.7°F12.1°C 84% Calm Calm -- 29.93 in1013.5 mb 0.03 in0.8 mm 0.00 in0.0 mm 0.03 in0.8 mm
08:05 AM 58.5°F14.7°C 53.0°F11.7°C 82% Calm Calm -- 29.93 in1013.5 mb 0.01 in0.3 mm 0.00 in0.0 mm 0.03 in0.8 mm
08:10 AM 58.7°F14.8°C 53.6°F12.0°C 83% Calm Calm -- 29.93 in1013.5 mb 0.01 in0.3 mm 0.00 in0.0 mm 0.03 in0.8 mm
08:15 AM 58.8°F14.9°C 54.3°F12.4°C 85% Calm Calm -- 29.94 in1013.9 mb 0.01 in0.3 mm 0.00 in0.0 mm 0.03 in0.8 mm
08:20 AM 58.8°F14.9°C 53.7°F12.1°C 83% Calm Calm -- 29.94 in1013.9 mb 0.00 in0.0 mm 0.00 in0.0 mm 0.03 in0.8 mm
08:25 AM 58.8°F14.9°C 53.7°F12.1°C 83% Calm Calm -- 29.94 in1013.9 mb 0.00 in0.0 mm 0.00 in0.0 mm 0.03 in0.8 mm
08:30 AM 59.2°F15.1°C 53.7°F12.1°C 82% Calm Calm -- 29.94 in1013.9 mb 0.00 in0.0 mm 0.00 in0.0 mm 0.03 in0.8 mm
08:35 AM 59.8°F15.4°C 53.3°F11.8°C 79% Calm Calm -- 29.94 in1013.9 mb 0.00 in0.0 mm 0.00 in0.0 mm 0.03 in0.8 mm
08:40 AM 60.6°F15.9°C 53.7°F12.1°C 78% Calm Calm -- 29.94 in1013.9 mb 0.00 in0.0 mm 0.00 in0.0 mm 0.03 in0.8 mm
08:45 AM 60.6°F15.9°C 53.4°F11.9°C 77% Calm Calm -- 29.94 in1013.9 mb 0.00 in0.0 mm 0.00 in0.0 mm 0.03 in0.8 mm
08:50 AM 60.8°F16.0°C 53.2°F11.8°C 76% Calm Calm -- 29.94 in1013.9 mb 0.00 in0.0 mm 0.00 in0.0 mm 0.03 in0.8 mm
08:55 AM 61.1°F16.2°C 52.4°F11.3°C 73% Calm Calm -- 29.95 in1014.2 mb 0.00 in0.0 mm 0.00 in0.0 mm 0.03 in0.8 mm
09:00 AM 61.5°F16.4°C 52.4°F11.3°C 72% Calm Calm -- 29.95 in1014.2 mb 0.00 in0.0 mm 0.00 in0.0 mm 0.03 in0.8 mm
09:05 AM 61.7°F16.5°C 53.0°F11.7°C 73% Calm Calm -- 29.95 in1014.2 mb 0.00 in0.0 mm 0.00 in0.0 mm 0.03 in0.8 mm
09:10 AM 62.4°F16.9°C 52.1°F11.2°C 69% Calm Calm -- 29.95 in1014.2 mb 0.00 in0.0 mm 0.00 in0.0 mm 0.03 in0.8 mm
09:15 AM 62.4°F16.9°C 51.3°F10.7°C 67% 2.0 mph N3.2 kmh N 4.0 mph6.4 kmh 29.95 in1014.2 mb 0.00 in0.0 mm 0.00 in0.0 mm 0.03 in0.8 mm
09:20 AM 62.1°F16.7°C 50.6°F10.3°C 66% Calm Calm 1.0 mph1.6 kmh 29.96 in1014.6 mb 0.00 in0.0 mm 0.00 in0.0 mm 0.03 in0.8 mm
09:25 AM 61.7°F16.5°C 50.6°F10.3°C 67% Calm Calm 2.0 mph3.2 kmh 29.96 in1014.6 mb 0.00 in0.0 mm 0.00 in0.0 mm 0.03 in0.8 mm
09:30 AM 61.9°F16.6°C 50.8°F10.4°C 67% Calm Calm 2.0 mph3.2 kmh 29.96 in1014.6 mb 0.00 in0.0 mm 0.00 in0.0 mm 0.03 in0.8 mm
09:35 AM 62.2°F16.8°C 51.9°F11.1°C 69% 3.0 mph N4.8 kmh N 3.0 mph4.8 kmh 29.96 in1014.6 mb 0.00 in0.0 mm 0.00 in0.0 mm 0.03 in0.8 mm
09:40 AM 62.6°F17.0°C 50.7°F10.4°C 65% Calm Calm 5.0 mph8.0 kmh 29.96 in1014.6 mb 0.00 in0.0 mm 0.00 in0.0 mm 0.03 in0.8 mm
09:45 AM 62.5°F16.9°C 51.0°F10.6°C 66% 5.0 mph N8.0 kmh N 6.0 mph9.7 kmh 29.97 in1014.9 mb 0.00 in0.0 mm 0.00 in0.0 mm 0.03 in0.8 mm
09:50 AM 62.9°F17.2°C 51.4°F10.8°C 66% 1.0 mph NW1.6 kmh NW 6.0 mph9.7 kmh 29.97 in1014.9 mb 0.00 in0.0 mm 0.00 in0.0 mm 0.03 in0.8 mm
09:55 AM 62.9°F17.2°C 51.8°F11.0°C 67% 6.0 mph NNW9.7 kmh NNW 7.0 mph11.3 kmh 29.97 in1014.9 mb 0.00 in0.0 mm 0.00 in0.0 mm 0.03 in0.8 mm
10:00 AM 63.1°F17.3°C 52.0°F11.1°C 67% 7.0 mph NW11.3 kmh NW 9.0 mph14.5 kmh 29.97 in1014.9 mb 0.00 in0.0 mm 0.00 in0.0 mm 0.03 in0.8 mm
10:05 AM 64.1°F17.8°C 52.1°F11.2°C 65% 7.0 mph NW11.3 kmh NW 10.0 mph16.1 kmh 29.97 in1014.9 mb 0.00 in0.0 mm 0.00 in0.0 mm 0.03 in0.8 mm
10:10 AM 64.9°F18.3°C 52.5°F11.4°C 64% 7.0 mph NW11.3 kmh NW 10.0 mph16.1 kmh 29.98 in1015.2 mb 0.00 in0.0 mm 0.00 in0.0 mm 0.03 in0.8 mm
10:15 AM 64.4°F18.0°C 51.1°F10.6°C 62% 9.0 mph NW14.5 kmh NW 10.0 mph16.1 kmh 29.98 in1015.2 mb 0.00 in0.0 mm 0.00 in0.0 mm 0.03 in0.8 mm
10:20 AM 64.5°F18.1°C 51.6°F10.9°C 63% 10.0 mph N16.1 kmh N 10.0 mph16.1 kmh 29.98 in1015.2 mb 0.00 in0.0 mm 0.00 in0.0 mm 0.03 in0.8 mm
10:25 AM 65.2°F18.4°C 52.7°F11.5°C 64% 1.0 mph NE1.6 kmh NE 11.0 mph17.7 kmh 29.98 in1015.2 mb 0.00 in0.0 mm 0.00 in0.0 mm 0.03 in0.8 mm
10:30 AM 65.4°F18.6°C 52.1°F11.2°C 62% 5.0 mph N8.0 kmh N 12.0 mph19.3 kmh 29.98 in1015.2 mb 0.00 in0.0 mm 0.00 in0.0 mm 0.03 in0.8 mm
10:35 AM 66.2°F19.0°C 52.4°F11.3°C 61% 5.0 mph NNW8.0 kmh NNW 10.0 mph16.1 kmh 29.98 in1015.2 mb 0.00 in0.0 mm 0.00 in0.0 mm 0.03 in0.8 mm
10:40 AM 66.2°F19.0°C 50.5°F10.3°C 57% 6.0 mph NW9.7 kmh NW 10.0 mph16.1 kmh 29.98 in1015.2 mb 0.00 in0.0 mm 0.00 in0.0 mm 0.03 in0.8 mm
10:45 AM 66.5°F19.2°C 50.8°F10.4°C 57% 6.0 mph NNW9.7 kmh NNW 11.0 mph17.7 kmh 29.98 in1015.2 mb 0.00 in0.0 mm 0.00 in0.0 mm 0.03 in0.8 mm
10:50 AM 66.6°F19.2°C 50.9°F10.5°C 57% 6.0 mph NW9.7 kmh NW 9.0 mph14.5 kmh 29.98 in1015.2 mb 0.00 in0.0 mm 0.00 in0.0 mm 0.03 in0.8 mm
10:55 AM 67.0°F19.4°C 50.3°F10.2°C 55% 5.0 mph NW8.0 kmh NW 13.0 mph20.9 kmh 29.98 in1015.2 mb 0.00 in0.0 mm 0.00 in0.0 mm 0.03 in0.8 mm
11:00 AM 67.4°F19.7°C 51.7°F10.9°C 57% 8.0 mph NW12.9 kmh NW 13.0 mph20.9 kmh 29.98 in1015.2 mb 0.00 in0.0 mm 0.00 in0.0 mm 0.03 in0.8 mm
11:05 AM 67.7°F19.8°C 50.5°F10.3°C 54% 11.0 mph NW17.7 kmh NW 14.0 mph22.5 kmh 29.98 in1015.2 mb 0.00 in0.0 mm 0.00 in0.0 mm 0.03 in0.8 mm
11:10 AM 67.8°F19.9°C 51.6°F10.9°C 56% 5.0 mph NW8.0 kmh NW 14.0 mph22.5 kmh 29.98 in1015.2 mb 0.00 in0.0 mm 0.00 in0.0 mm 0.03 in0.8 mm
11:15 AM 67.8°F19.9°C 50.6°F10.3°C 54% 12.0 mph NW19.3 kmh NW 14.0 mph22.5 kmh 29.98 in1015.2 mb 0.00 in0.0 mm 0.00 in0.0 mm 0.03 in0.8 mm
11:20 AM 67.1°F19.5°C 50.9°F10.5°C 56% 8.0 mph NW12.9 kmh NW 9.0 mph14.5 kmh 29.98 in1015.2 mb 0.00 in0.0 mm 0.00 in0.0 mm 0.03 in0.8 mm
11:25 AM 67.0°F19.4°C 50.3°F10.2°C 55% 7.0 mph WNW11.3 kmh WNW 9.0 mph14.5 kmh 29.98 in1015.2 mb 0.00 in0.0 mm 0.00 in0.0 mm 0.03 in0.8 mm
11:30 AM 66.1°F18.9°C 48.5°F9.2°C 53% 7.0 mph W11.3 kmh W 12.0 mph19.3 kmh 29.98 in1015.2 mb 0.00 in0.0 mm 0.00 in0.0 mm 0.03 in0.8 mm
11:35 AM 67.4°F19.7°C 50.2°F10.1°C 54% 13.0 mph NW20.9 kmh NW 17.0 mph27.4 kmh 29.98 in1015.2 mb 0.00 in0.0 mm 0.00 in0.0 mm 0.03 in0.8 mm
11:40 AM 68.2°F20.1°C 49.4°F9.7°C 51% 4.0 mph NNW6.4 kmh NNW 17.0 mph27.4 kmh 29.98 in1015.2 mb 0.00 in0.0 mm 0.00 in0.0 mm 0.03 in0.8 mm
11:45 AM 69.0°F20.6°C 50.1°F10.1°C 51% 10.0 mph NNW16.1 kmh NNW 17.0 mph27.4 kmh 29.98 in1015.2 mb 0.00 in0.0 mm 0.00 in0.0 mm 0.03 in0.8 mm
11:50 AM 69.3°F20.7°C 48.8°F9.3°C 48% 7.0 mph NW11.3 kmh NW 14.0 mph22.5 kmh 29.98 in1015.2 mb 0.00 in0.0 mm 0.00 in0.0 mm 0.03 in0.8 mm
11:55 AM 68.1°F20.1°C 48.2°F9.0°C 49% 7.0 mph N11.3 kmh N 14.0 mph22.5 kmh 29.98 in1015.2 mb 0.00 in0.0 mm 0.00 in0.0 mm 0.03 in0.8 mm
12:00 PM 68.1°F20.1°C 48.8°F9.3°C 50% 6.0 mph N9.7 kmh N 14.0 mph22.5 kmh 29.98 in1015.2 mb 0.00 in0.0 mm 0.00 in0.0 mm 0.03 in0.8 mm
12:05 PM 67.8°F19.9°C 48.5°F9.2°C 50% 6.0 mph NW9.7 kmh NW 12.0 mph19.3 kmh 29.97 in1014.9 mb 0.00 in0.0 mm 0.00 in0.0 mm 0.03 in0.8 mm
12:10 PM 69.2°F20.7°C 49.3°F9.6°C 49% 12.0 mph NW19.3 kmh NW 16.0 mph25.7 kmh 29.97 in1014.9 mb 0.00 in0.0 mm 0.00 in0.0 mm 0.03 in0.8 mm
12:15 PM 68.7°F20.4°C 48.2°F9.0°C 48% 6.0 mph NW9.7 kmh NW 16.0 mph25.7 kmh 29.97 in1014.9 mb 0.00 in0.0 mm 0.00 in0.0 mm 0.03 in0.8 mm
12:20 PM 69.9°F21.1°C 49.9°F9.9°C 49% 10.0 mph WNW16.1 kmh WNW 16.0 mph25.7 kmh 29.97 in1014.9 mb 0.00 in0.0 mm 0.00 in0.0 mm 0.03 in0.8 mm
12:25 PM 70.4°F21.3°C 48.7°F9.3°C 46% 5.0 mph NW8.0 kmh NW 16.0 mph25.7 kmh 29.97 in1014.9 mb 0.00 in0.0 mm 0.00 in0.0 mm 0.03 in0.8 mm
12:30 PM 70.7°F21.5°C 48.9°F9.4°C 46% 9.0 mph NW14.5 kmh NW 16.0 mph25.7 kmh 29.97 in1014.9 mb 0.00 in0.0 mm 0.00 in0.0 mm 0.03 in0.8 mm
12:35 PM 71.4°F21.9°C 49.6°F9.8°C 46% 9.0 mph NW14.5 kmh NW 10.0 mph16.1 kmh 29.97 in1014.9 mb 0.00 in0.0 mm 0.00 in0.0 mm 0.03 in0.8 mm
12:40 PM 71.4°F21.9°C 48.4°F9.1°C 44% 6.0 mph SW9.7 kmh SW 14.0 mph22.5 kmh 29.97 in1014.9 mb 0.00 in0.0 mm 0.00 in0.0 mm 0.03 in0.8 mm
12:45 PM 70.5°F21.4°C 47.6°F8.7°C 44% 10.0 mph NNW16.1 kmh NNW 14.0 mph22.5 kmh 29.97 in1014.9 mb 0.00 in0.0 mm 0.00 in0.0 mm 0.03 in0.8 mm
12:50 PM 69.0°F20.6°C 48.0°F8.9°C 47% 7.0 mph WNW11.3 kmh WNW 11.0 mph17.7 kmh 29.97 in1014.9 mb 0.00 in0.0 mm 0.00 in0.0 mm 0.03 in0.8 mm
12:55 PM 69.2°F20.7°C 47.6°F8.7°C 46% 10.0 mph NW16.1 kmh NW 15.0 mph24.1 kmh 29.97 in1014.9 mb 0.00 in0.0 mm 0.00 in0.0 mm 0.03 in0.8 mm
01:00 PM 69.8°F21.0°C 47.5°F8.6°C 45% 5.0 mph NW8.0 kmh NW 15.0 mph24.1 kmh 29.97 in1014.9 mb 0.00 in0.0 mm 0.00 in0.0 mm 0.03 in0.8 mm
01:05 PM 70.0°F21.1°C 47.7°F8.7°C 45% 4.0 mph NW6.4 kmh NW 13.0 mph20.9 kmh 29.98 in1015.2 mb 0.00 in0.0 mm 0.00 in0.0 mm 0.03 in0.8 mm
01:10 PM 69.6°F20.9°C 47.3°F8.5°C 45% 16.0 mph NW25.7 kmh NW 16.0 mph25.7 kmh 29.98 in1015.2 mb 0.00 in0.0 mm 0.00 in0.0 mm 0.03 in0.8 mm
01:15 PM 69.5°F20.8°C 48.4°F9.1°C 47% 1.0 mph NW1.6 kmh NW 18.0 mph29.0 kmh 29.98 in1015.2 mb 0.00 in0.0 mm 0.00 in0.0 mm 0.03 in0.8 mm
01:20 PM 70.7°F21.5°C 47.1°F8.4°C 43% 9.0 mph NW14.5 kmh NW 13.0 mph20.9 kmh 29.98 in1015.2 mb 0.00 in0.0 mm 0.00 in0.0 mm 0.03 in0.8 mm
01:25 PM 71.3°F21.8°C 48.9°F9.4°C 45% 6.0 mph NNW9.7 kmh NNW 14.0 mph22.5 kmh 29.98 in1015.2 mb 0.00 in0.0 mm 0.00 in0.0 mm 0.03 in0.8 mm
01:30 PM 72.4°F22.4°C 48.7°F9.3°C 43% 8.0 mph NW12.9 kmh NW 16.0 mph25.7 kmh 29.98 in1015.2 mb 0.00 in0.0 mm 0.00 in0.0 mm 0.03 in0.8 mm
01:35 PM 73.1°F22.8°C 48.7°F9.3°C 42% 5.0 mph NW8.0 kmh NW 13.0 mph20.9 kmh 29.98 in1015.2 mb 0.00 in0.0 mm 0.00 in0.0 mm 0.03 in0.8 mm
01:40 PM 72.8°F22.7°C 48.4°F9.1°C 42% 5.0 mph WNW8.0 kmh WNW 18.0 mph29.0 kmh 29.98 in1015.2 mb 0.00 in0.0 mm 0.00 in0.0 mm 0.03 in0.8 mm
01:45 PM 72.8°F22.7°C 47.1°F8.4°C 40% 8.0 mph NW12.9 kmh NW 18.0 mph29.0 kmh 29.98 in1015.2 mb 0.00 in0.0 mm 0.00 in0.0 mm 0.03 in0.8 mm
01:50 PM 72.7°F22.6°C 47.0°F8.3°C 40% 9.0 mph NW14.5 kmh NW 15.0 mph24.1 kmh 29.98 in1015.2 mb 0.00 in0.0 mm 0.00 in0.0 mm 0.03 in0.8 mm
01:55 PM 73.0°F22.8°C 47.3°F8.5°C 40% 13.0 mph WNW20.9 kmh WNW 19.0 mph30.6 kmh 29.98 in1015.2 mb 0.00 in0.0 mm 0.00 in0.0 mm 0.03 in0.8 mm
02:00 PM 72.7°F22.6°C 46.3°F7.9°C 39% 13.0 mph NNW20.9 kmh NNW 19.0 mph30.6 kmh 29.98 in1015.2 mb 0.00 in0.0 mm 0.00 in0.0 mm 0.03 in0.8 mm
02:05 PM 72.8°F22.7°C 45.7°F7.6°C 38% 8.0 mph NW12.9 kmh NW 12.0 mph19.3 kmh 29.98 in1015.2 mb 0.00 in0.0 mm 0.00 in0.0 mm 0.03 in0.8 mm
02:15 PM 73.2°F22.9°C 44.7°F7.1°C 36% 10.0 mph NNW16.1 kmh NNW 17.0 mph27.4 kmh 29.98 in1015.2 mb 0.00 in0.0 mm 0.00 in0.0 mm 0.03 in0.8 mm
02:20 PM 72.5°F22.5°C 45.5°F7.5°C 38% 15.0 mph NW24.1 kmh NW 18.0 mph29.0 kmh 29.98 in1015.2 mb 0.00 in0.0 mm 0.00 in0.0 mm 0.03 in0.8 mm
02:25 PM 71.9°F22.2°C 44.9°F7.2°C 38% 6.0 mph NW9.7 kmh NW 18.0 mph29.0 kmh 29.98 in1015.2 mb 0.00 in0.0 mm 0.00 in0.0 mm 0.03 in0.8 mm
02:30 PM 72.5°F22.5°C 44.8°F7.1°C 37% 5.0 mph NW8.0 kmh NW 18.0 mph29.0 kmh 29.98 in1015.2 mb 0.00 in0.0 mm 0.00 in0.0 mm 0.03 in0.8 mm
02:35 PM 73.2°F22.9°C 45.4°F7.4°C 37% 10.0 mph NNW16.1 kmh NNW 13.0 mph20.9 kmh 29.98 in1015.2 mb 0.00 in0.0 mm 0.00 in0.0 mm 0.03 in0.8 mm
02:40 PM 73.3°F22.9°C 44.0°F6.7°C 35% 12.0 mph NW19.3 kmh NW 18.0 mph29.0 kmh 29.98 in1015.2 mb 0.00 in0.0 mm 0.00 in0.0 mm 0.03 in0.8 mm
02:45 PM 72.9°F22.7°C 44.4°F6.9°C 36% 8.0 mph NW12.9 kmh NW 18.0 mph29.0 kmh 29.98 in1015.2 mb 0.00 in0.0 mm 0.00 in0.0 mm 0.03 in0.8 mm
02:50 PM 73.4°F23.0°C 44.9°F7.2°C 36% 6.0 mph N9.7 kmh N 11.0 mph17.7 kmh 29.98 in1015.2 mb 0.00 in0.0 mm 0.00 in0.0 mm 0.03 in0.8 mm
02:55 PM 73.9°F23.3°C 45.3°F7.4°C 36% 6.0 mph W9.7 kmh W 18.0 mph29.0 kmh 29.98 in1015.2 mb 0.00 in0.0 mm 0.00 in0.0 mm 0.03 in0.8 mm
03:00 PM 73.9°F23.3°C 44.6°F7.0°C 35% 6.0 mph NW9.7 kmh NW 18.0 mph29.0 kmh 29.98 in1015.2 mb 0.00 in0.0 mm 0.00 in0.0 mm 0.03 in0.8 mm
03:05 PM 73.1°F22.8°C 43.9°F6.6°C 35% 11.0 mph NW17.7 kmh NW 13.0 mph20.9 kmh 29.98 in1015.2 mb 0.00 in0.0 mm 0.00 in0.0 mm 0.03 in0.8 mm
03:10 PM 72.8°F22.7°C 45.7°F7.6°C 38% 7.0 mph NW11.3 kmh NW 18.0 mph29.0 kmh 29.98 in1015.2 mb 0.00 in0.0 mm 0.00 in0.0 mm 0.03 in0.8 mm
03:15 PM 73.0°F22.8°C 44.5°F6.9°C 36% 9.0 mph N14.5 kmh N 18.0 mph29.0 kmh 29.99 in1015.6 mb 0.00 in0.0 mm 0.00 in0.0 mm 0.03 in0.8 mm
03:20 PM 72.5°F22.5°C 44.8°F7.1°C 37% 8.0 mph NW12.9 kmh NW 19.0 mph30.6 kmh 29.98 in1015.2 mb 0.00 in0.0 mm 0.00 in0.0 mm 0.03 in0.8 mm
03:25 PM 72.8°F22.7°C 45.0°F7.2°C 37% 6.0 mph NW9.7 kmh NW 19.0 mph30.6 kmh 29.98 in1015.2 mb 0.00 in0.0 mm 0.00 in0.0 mm 0.03 in0.8 mm
03:30 PM 73.8°F23.2°C 45.2°F7.3°C 36% 7.0 mph NNW11.3 kmh NNW 19.0 mph30.6 kmh 29.98 in1015.2 mb 0.00 in0.0 mm 0.00 in0.0 mm 0.03 in0.8 mm
03:35 PM 73.5°F23.1°C 44.2°F6.8°C 35% 6.0 mph NW9.7 kmh NW 15.0 mph24.1 kmh 29.98 in1015.2 mb 0.00 in0.0 mm 0.00 in0.0 mm 0.03 in0.8 mm
03:40 PM 73.0°F22.8°C 44.5°F6.9°C 36% 4.0 mph NW6.4 kmh NW 15.0 mph24.1 kmh 29.98 in1015.2 mb 0.00 in0.0 mm 0.00 in0.0 mm 0.03 in0.8 mm
03:45 PM 73.0°F22.8°C 45.9°F7.7°C 38% 7.0 mph NW11.3 kmh NW 15.0 mph24.1 kmh 29.98 in1015.2 mb 0.00 in0.0 mm 0.00 in0.0 mm 0.03 in0.8 mm
03:50 PM 72.8°F22.7°C 46.4°F8.0°C 39% 6.0 mph NW9.7 kmh NW 13.0 mph20.9 kmh 29.99 in1015.6 mb 0.00 in0.0 mm 0.00 in0.0 mm 0.03 in0.8 mm
03:55 PM 72.6°F22.6°C 46.3°F7.9°C 39% 6.0 mph NW9.7 kmh NW 14.0 mph22.5 kmh 29.99 in1015.6 mb 0.00 in0.0 mm 0.00 in0.0 mm 0.03 in0.8 mm
04:00 PM 72.9°F22.7°C 45.8°F7.7°C 38% 10.0 mph NW16.1 kmh NW 15.0 mph24.1 kmh 29.99 in1015.6 mb 0.00 in0.0 mm 0.00 in0.0 mm 0.03 in0.8 mm
04:05 PM 73.5°F23.1°C 45.7°F7.6°C 37% 7.0 mph NW11.3 kmh NW 11.0 mph17.7 kmh 29.99 in1015.6 mb 0.00 in0.0 mm 0.00 in0.0 mm 0.03 in0.8 mm
04:10 PM 73.3°F22.9°C 44.0°F6.7°C 35% 6.0 mph N9.7 kmh N 12.0 mph19.3 kmh 29.98 in1015.2 mb 0.00 in0.0 mm 0.00 in0.0 mm 0.03 in0.8 mm
04:15 PM 73.3°F22.9°C 46.2°F7.9°C 38% 7.0 mph NNW11.3 kmh NNW 14.0 mph22.5 kmh 29.99 in1015.6 mb 0.00 in0.0 mm 0.00 in0.0 mm 0.03 in0.8 mm
04:20 PM 72.9°F22.7°C 45.8°F7.7°C 38% 9.0 mph NNW14.5 kmh NNW 11.0 mph17.7 kmh 29.99 in1015.6 mb 0.00 in0.0 mm 0.00 in0.0 mm 0.03 in0.8 mm
04:25 PM 73.4°F23.0°C 45.6°F7.6°C 37% 3.0 mph NW4.8 kmh NW 12.0 mph19.3 kmh 29.99 in1015.6 mb 0.00 in0.0 mm 0.00 in0.0 mm 0.03 in0.8 mm
04:30 PM 73.4°F23.0°C 45.6°F7.6°C 37% 6.0 mph N9.7 kmh N 12.0 mph19.3 kmh 29.99 in1015.6 mb 0.00 in0.0 mm 0.00 in0.0 mm 0.03 in0.8 mm
04:35 PM 73.5°F23.1°C 47.7°F8.7°C 40% 6.0 mph NW9.7 kmh NW 9.0 mph14.5 kmh 29.99 in1015.6 mb 0.00 in0.0 mm 0.00 in0.0 mm 0.03 in0.8 mm
04:40 PM 72.8°F22.7°C 45.7°F7.6°C 38% 5.0 mph WNW8.0 kmh WNW 10.0 mph16.1 kmh 29.99 in1015.6 mb 0.00 in0.0 mm 0.00 in0.0 mm 0.03 in0.8 mm
04:45 PM 73.1°F22.8°C 44.6°F7.0°C 36% 6.0 mph NW9.7 kmh NW 12.0 mph19.3 kmh 29.99 in1015.6 mb 0.00 in0.0 mm 0.00 in0.0 mm 0.03 in0.8 mm
04:50 PM 73.6°F23.1°C 45.8°F7.7°C 37% 8.0 mph N12.9 kmh N 12.0 mph19.3 kmh 29.99 in1015.6 mb 0.00 in0.0 mm 0.00 in0.0 mm 0.03 in0.8 mm
04:55 PM 72.9°F22.7°C 46.5°F8.1°C 39% 2.0 mph NW3.2 kmh NW 15.0 mph24.1 kmh 29.99 in1015.6 mb 0.00 in0.0 mm 0.00 in0.0 mm 0.03 in0.8 mm
05:05 PM 72.8°F22.7°C 45.0°F7.2°C 37% 12.0 mph N19.3 kmh N 12.0 mph19.3 kmh 29.99 in1015.6 mb 0.00 in0.0 mm 0.00 in0.0 mm 0.03 in0.8 mm
05:10 PM 73.4°F23.0°C 43.4°F6.3°C 34% 8.0 mph W12.9 kmh W 13.0 mph20.9 kmh 29.99 in1015.6 mb 0.00 in0.0 mm 0.00 in0.0 mm 0.03 in0.8 mm
05:15 PM 73.4°F23.0°C 46.3°F7.9°C 38% 6.0 mph N9.7 kmh N 13.0 mph20.9 kmh 29.99 in1015.6 mb 0.00 in0.0 mm 0.00 in0.0 mm 0.03 in0.8 mm
05:20 PM 73.1°F22.8°C 45.3°F7.4°C 37% 10.0 mph N16.1 kmh N 12.0 mph19.3 kmh 29.99 in1015.6 mb 0.00 in0.0 mm 0.00 in0.0 mm 0.03 in0.8 mm
05:25 PM 73.2°F22.9°C 45.4°F7.4°C 37% 4.0 mph NW6.4 kmh NW 12.0 mph19.3 kmh 29.99 in1015.6 mb 0.00 in0.0 mm 0.00 in0.0 mm 0.03 in0.8 mm
05:30 PM 72.3°F22.4°C 43.1°F6.2°C 35% 6.0 mph NW9.7 kmh NW 12.0 mph19.3 kmh 29.99 in1015.6 mb 0.00 in0.0 mm 0.00 in0.0 mm 0.03 in0.8 mm
05:35 PM 71.9°F22.2°C 40.5°F4.7°C 32% 8.0 mph W12.9 kmh W 11.0 mph17.7 kmh 29.99 in1015.6 mb 0.00 in0.0 mm 0.00 in0.0 mm 0.03 in0.8 mm
05:40 PM 72.3°F22.4°C 40.8°F4.9°C 32% 6.0 mph NW9.7 kmh NW 15.0 mph24.1 kmh 30.00 in1015.9 mb 0.00 in0.0 mm 0.00 in0.0 mm 0.03 in0.8 mm
05:45 PM 72.5°F22.5°C 41.8°F5.4°C 33% 10.0 mph NW16.1 kmh NW 15.0 mph24.1 kmh 30.00 in1015.9 mb 0.00 in0.0 mm 0.00 in0.0 mm 0.03 in0.8 mm
05:50 PM 72.3°F22.4°C 41.6°F5.3°C 33% 6.0 mph NW9.7 kmh NW 11.0 mph17.7 kmh 30.00 in1015.9 mb 0.00 in0.0 mm 0.00 in0.0 mm 0.03 in0.8 mm
05:55 PM 71.8°F22.1°C 41.2°F5.1°C 33% 9.0 mph NW14.5 kmh NW 11.0 mph17.7 kmh 30.00 in1015.9 mb 0.00 in0.0 mm 0.00 in0.0 mm 0.03 in0.8 mm
06:00 PM 71.7°F22.1°C 41.1°F5.1°C 33% 5.0 mph NW8.0 kmh NW 11.0 mph17.7 kmh 30.00 in1015.9 mb 0.00 in0.0 mm 0.00 in0.0 mm 0.03 in0.8 mm
06:05 PM 71.5°F21.9°C 40.9°F4.9°C 33% 8.0 mph NW12.9 kmh NW 11.0 mph17.7 kmh 30.00 in1015.9 mb 0.00 in0.0 mm 0.00 in0.0 mm 0.03 in0.8 mm
06:10 PM 71.2°F21.8°C 41.4°F5.2°C 34% 9.0 mph NW14.5 kmh NW 14.0 mph22.5 kmh 30.00 in1015.9 mb 0.00 in0.0 mm 0.00 in0.0 mm 0.03 in0.8 mm
06:15 PM 70.8°F21.6°C 41.8°F5.4°C 35% 4.0 mph NW6.4 kmh NW 14.0 mph22.5 kmh 30.00 in1015.9 mb 0.00 in0.0 mm 0.00 in0.0 mm 0.03 in0.8 mm
06:20 PM 70.4°F21.3°C 42.2°F5.7°C 36% 9.0 mph NW14.5 kmh NW 11.0 mph17.7 kmh 30.00 in1015.9 mb 0.00 in0.0 mm 0.00 in0.0 mm 0.03 in0.8 mm
06:25 PM 70.0°F21.1°C 41.9°F5.5°C 36% 6.0 mph W9.7 kmh W 11.0 mph17.7 kmh 30.00 in1015.9 mb 0.00 in0.0 mm 0.00 in0.0 mm 0.03 in0.8 mm
06:30 PM 69.8°F21.0°C 41.7°F5.4°C 36% 3.0 mph WNW4.8 kmh WNW 11.0 mph17.7 kmh 30.01 in1016.3 mb 0.00 in0.0 mm 0.00 in0.0 mm 0.03 in0.8 mm
06:35 PM 69.7°F20.9°C 41.6°F5.3°C 36% 1.0 mph W1.6 kmh W 9.0 mph14.5 kmh 30.01 in1016.3 mb 0.00 in0.0 mm 0.00 in0.0 mm 0.03 in0.8 mm
06:40 PM 69.5°F20.8°C 41.4°F5.2°C 36% 6.0 mph NW9.7 kmh NW 11.0 mph17.7 kmh 30.01 in1016.3 mb 0.00 in0.0 mm 0.00 in0.0 mm 0.03 in0.8 mm
06:45 PM 69.3°F20.7°C 41.9°F5.5°C 37% 9.0 mph NW14.5 kmh NW 11.0 mph17.7 kmh 30.01 in1016.3 mb 0.00 in0.0 mm 0.00 in0.0 mm 0.03 in0.8 mm
06:50 PM 69.0°F20.6°C 42.4°F5.8°C 38% 5.0 mph NW8.0 kmh NW 8.0 mph12.9 kmh 30.01 in1016.3 mb 0.00 in0.0 mm 0.00 in0.0 mm 0.03 in0.8 mm
06:55 PM 68.7°F20.4°C 42.1°F5.6°C 38% 2.0 mph NW3.2 kmh NW 8.0 mph12.9 kmh 30.01 in1016.3 mb 0.00 in0.0 mm 0.00 in0.0 mm 0.03 in0.8 mm
07:00 PM 68.5°F20.3°C 42.6°F5.9°C 39% 7.0 mph NW11.3 kmh NW 9.0 mph14.5 kmh 30.01 in1016.3 mb 0.00 in0.0 mm 0.00 in0.0 mm 0.03 in0.8 mm
07:05 PM 68.2°F20.1°C 43.0°F6.1°C 40% 1.0 mph NW1.6 kmh NW 10.0 mph16.1 kmh 30.01 in1016.3 mb 0.00 in0.0 mm 0.00 in0.0 mm 0.03 in0.8 mm
07:10 PM 67.8°F19.9°C 42.6°F5.9°C 40% 6.0 mph NW9.7 kmh NW 10.0 mph16.1 kmh 30.01 in1016.3 mb 0.00 in0.0 mm 0.00 in0.0 mm 0.03 in0.8 mm
07:15 PM 67.4°F19.7°C 42.9°F6.1°C 41% 4.0 mph NW6.4 kmh NW 10.0 mph16.1 kmh 30.02 in1016.6 mb 0.00 in0.0 mm 0.00 in0.0 mm 0.03 in0.8 mm
07:20 PM 67.3°F19.6°C 42.8°F6.0°C 41% 1.0 mph NW1.6 kmh NW 7.0 mph11.3 kmh 30.02 in1016.6 mb 0.00 in0.0 mm 0.00 in0.0 mm 0.03 in0.8 mm
07:25 PM 66.8°F19.3°C 43.6°F6.4°C 43% 4.0 mph NW6.4 kmh NW 7.0 mph11.3 kmh 30.02 in1016.6 mb 0.00 in0.0 mm 0.00 in0.0 mm 0.03 in0.8 mm
07:30 PM 66.4°F19.1°C 43.3°F6.3°C 43% 1.0 mph NW1.6 kmh NW 7.0 mph11.3 kmh 30.02 in1016.6 mb 0.00 in0.0 mm 0.00 in0.0 mm 0.03 in0.8 mm
07:35 PM 66.2°F19.0°C 43.7°F6.5°C 44% 1.0 mph NW1.6 kmh NW 6.0 mph9.7 kmh 30.02 in1016.6 mb 0.00 in0.0 mm 0.00 in0.0 mm 0.03 in0.8 mm
07:40 PM 65.8°F18.8°C 43.3°F6.3°C 44% 4.0 mph NW6.4 kmh NW 7.0 mph11.3 kmh 30.03 in1016.9 mb 0.00 in0.0 mm 0.00 in0.0 mm 0.03 in0.8 mm
07:45 PM 65.4°F18.6°C 43.5°F6.4°C 45% 1.0 mph NW1.6 kmh NW 7.0 mph11.3 kmh 30.03 in1016.9 mb 0.00 in0.0 mm 0.00 in0.0 mm 0.03 in0.8 mm
07:50 PM 65.1°F18.4°C 43.8°F6.6°C 46% 3.0 mph NW4.8 kmh NW 3.0 mph4.8 kmh 30.03 in1016.9 mb 0.00 in0.0 mm 0.00 in0.0 mm 0.03 in0.8 mm
07:55 PM 64.9°F18.3°C 43.7°F6.5°C 46% 5.0 mph W8.0 kmh W 7.0 mph11.3 kmh 30.03 in1016.9 mb 0.00 in0.0 mm 0.00 in0.0 mm 0.03 in0.8 mm
08:00 PM 64.8°F18.2°C 43.6°F6.4°C 46% 1.0 mph NW1.6 kmh NW 7.0 mph11.3 kmh 30.04 in1017.3 mb 0.00 in0.0 mm 0.00 in0.0 mm 0.03 in0.8 mm
08:05 PM 64.6°F18.1°C 43.9°F6.6°C 47% 5.0 mph WSW8.0 kmh WSW 6.0 mph9.7 kmh 30.04 in1017.3 mb 0.00 in0.0 mm 0.00 in0.0 mm 0.03 in0.8 mm
08:10 PM 64.0°F17.8°C 43.9°F6.6°C 48% 1.0 mph NW1.6 kmh NW 6.0 mph9.7 kmh 30.04 in1017.3 mb 0.00 in0.0 mm 0.00 in0.0 mm 0.03 in0.8 mm
08:15 PM 63.9°F17.7°C 43.9°F6.6°C 48% 5.0 mph NW8.0 kmh NW 7.0 mph11.3 kmh 30.04 in1017.3 mb 0.00 in0.0 mm 0.00 in0.0 mm 0.03 in0.8 mm
08:20 PM 63.8°F17.7°C 43.8°F6.6°C 48% 4.0 mph WNW6.4 kmh WNW 8.0 mph12.9 kmh 30.04 in1017.3 mb 0.00 in0.0 mm 0.00 in0.0 mm 0.03 in0.8 mm
08:30 PM 63.6°F17.6°C 43.6°F6.4°C 48% 4.0 mph WNW6.4 kmh WNW 8.0 mph12.9 kmh 30.05 in1017.6 mb 0.00 in0.0 mm 0.00 in0.0 mm 0.03 in0.8 mm
08:40 PM 63.3°F17.4°C 43.3°F6.3°C 48% 6.0 mph WNW9.7 kmh WNW 9.0 mph14.5 kmh 30.06 in1017.9 mb 0.00 in0.0 mm 0.00 in0.0 mm 0.03 in0.8 mm
08:45 PM 63.1°F17.3°C 43.7°F6.5°C 49% 5.0 mph WNW8.0 kmh WNW 10.0 mph16.1 kmh 30.06 in1017.9 mb 0.00 in0.0 mm 0.00 in0.0 mm 0.03 in0.8 mm
08:50 PM 62.8°F17.1°C 43.9°F6.6°C 50% 6.0 mph WNW9.7 kmh WNW 8.0 mph12.9 kmh 30.06 in1017.9 mb 0.00 in0.0 mm 0.00 in0.0 mm 0.03 in0.8 mm
08:55 PM 62.6°F17.0°C 43.7°F6.5°C 50% 3.0 mph WNW4.8 kmh WNW 8.0 mph12.9 kmh 30.06 in1017.9 mb 0.00 in0.0 mm 0.00 in0.0 mm 0.03 in0.8 mm
09:00 PM 62.4°F16.9°C 43.5°F6.4°C 50% 4.0 mph WNW6.4 kmh WNW 10.0 mph16.1 kmh 30.06 in1017.9 mb 0.00 in0.0 mm 0.00 in0.0 mm 0.03 in0.8 mm
09:05 PM 62.2°F16.8°C 43.9°F6.6°C 51% 2.0 mph NW3.2 kmh NW 9.0 mph14.5 kmh 30.07 in1018.3 mb 0.00 in0.0 mm 0.00 in0.0 mm 0.03 in0.8 mm
09:10 PM 61.9°F16.6°C 44.1°F6.7°C 52% 5.0 mph NNW8.0 kmh NNW 9.0 mph14.5 kmh 30.07 in1018.3 mb 0.00 in0.0 mm 0.00 in0.0 mm 0.03 in0.8 mm
09:15 PM 61.7°F16.5°C 43.9°F6.6°C 52% 4.0 mph NW6.4 kmh NW 9.0 mph14.5 kmh 30.06 in1017.9 mb 0.00 in0.0 mm 0.00 in0.0 mm 0.03 in0.8 mm
09:20 PM 61.4°F16.3°C 44.1°F6.7°C 53% 3.0 mph WNW4.8 kmh WNW 7.0 mph11.3 kmh 30.07 in1018.3 mb 0.00 in0.0 mm 0.00 in0.0 mm 0.03 in0.8 mm
09:30 PM 61.1°F16.2°C 44.4°F6.9°C 54% 6.0 mph NW9.7 kmh NW 9.0 mph14.5 kmh 30.07 in1018.3 mb 0.00 in0.0 mm 0.00 in0.0 mm 0.03 in0.8 mm
09:45 PM 60.8°F16.0°C 44.1°F6.7°C 54% 7.0 mph NW11.3 kmh NW 9.0 mph14.5 kmh 30.07 in1018.3 mb 0.00 in0.0 mm 0.00 in0.0 mm 0.03 in0.8 mm
09:50 PM 60.6°F15.9°C 44.4°F6.9°C 55% 5.0 mph NW8.0 kmh NW 7.0 mph11.3 kmh 30.07 in1018.3 mb 0.00 in0.0 mm 0.00 in0.0 mm 0.03 in0.8 mm
09:55 PM 60.4°F15.8°C 44.2°F6.8°C 55% 5.0 mph NW8.0 kmh NW 9.0 mph14.5 kmh 30.07 in1018.3 mb 0.00 in0.0 mm 0.00 in0.0 mm 0.03 in0.8 mm
10:00 PM 60.3°F15.7°C 44.1°F6.7°C 55% 4.0 mph NW6.4 kmh NW 9.0 mph14.5 kmh 30.08 in1018.6 mb 0.00 in0.0 mm 0.00 in0.0 mm 0.03 in0.8 mm
10:05 PM 60.0°F15.6°C 43.8°F6.6°C 55% 4.0 mph NW6.4 kmh NW 7.0 mph11.3 kmh 30.08 in1018.6 mb 0.00 in0.0 mm 0.00 in0.0 mm 0.03 in0.8 mm
10:10 PM 59.7°F15.4°C 44.0°F6.7°C 56% 3.0 mph W4.8 kmh W 8.0 mph12.9 kmh 30.08 in1018.6 mb 0.00 in0.0 mm 0.00 in0.0 mm 0.03 in0.8 mm
10:15 PM 59.6°F15.3°C 43.9°F6.6°C 56% 4.0 mph NW6.4 kmh NW 8.0 mph12.9 kmh 30.08 in1018.6 mb 0.00 in0.0 mm 0.00 in0.0 mm 0.03 in0.8 mm
10:20 PM 59.4°F15.2°C 43.7°F6.5°C 56% 5.0 mph NW8.0 kmh NW 8.0 mph12.9 kmh 30.08 in1018.6 mb 0.00 in0.0 mm 0.00 in0.0 mm 0.03 in0.8 mm
10:25 PM 59.3°F15.2°C 43.6°F6.4°C 56% 4.0 mph NW6.4 kmh NW 9.0 mph14.5 kmh 30.08 in1018.6 mb 0.00 in0.0 mm 0.00 in0.0 mm 0.03 in0.8 mm
10:30 PM 59.4°F15.2°C 43.7°F6.5°C 56% 5.0 mph NW8.0 kmh NW 10.0 mph16.1 kmh 30.08 in1018.6 mb 0.00 in0.0 mm 0.00 in0.0 mm 0.03 in0.8 mm
10:35 PM 59.3°F15.2°C 43.6°F6.4°C 56% 6.0 mph NW9.7 kmh NW 6.0 mph9.7 kmh 30.08 in1018.6 mb 0.00 in0.0 mm 0.00 in0.0 mm 0.03 in0.8 mm
10:40 PM 59.0°F15.0°C 43.3°F6.3°C 56% 2.0 mph NW3.2 kmh NW 8.0 mph12.9 kmh 30.08 in1018.6 mb 0.00 in0.0 mm 0.00 in0.0 mm 0.03 in0.8 mm
10:45 PM 58.9°F14.9°C 43.3°F6.3°C 56% 5.0 mph NW8.0 kmh NW 9.0 mph14.5 kmh 30.08 in1018.6 mb 0.00 in0.0 mm 0.00 in0.0 mm 0.03 in0.8 mm
10:50 PM 58.8°F14.9°C 43.6°F6.4°C 57% 5.0 mph NW8.0 kmh NW 7.0 mph11.3 kmh 30.08 in1018.6 mb 0.00 in0.0 mm 0.00 in0.0 mm 0.03 in0.8 mm
10:55 PM 58.6°F14.8°C 43.4°F6.3°C 57% 5.0 mph NW8.0 kmh NW 8.0 mph12.9 kmh 30.08 in1018.6 mb 0.00 in0.0 mm 0.00 in0.0 mm 0.03 in0.8 mm
11:00 PM 58.4°F14.7°C 43.7°F6.5°C 58% 2.0 mph NW3.2 kmh NW 8.0 mph12.9 kmh 30.08 in1018.6 mb 0.00 in0.0 mm 0.00 in0.0 mm 0.03 in0.8 mm
11:05 PM 58.1°F14.5°C 43.4°F6.3°C 58% 3.0 mph NW4.8 kmh NW 6.0 mph9.7 kmh 30.09 in1019.0 mb 0.00 in0.0 mm 0.00 in0.0 mm 0.03 in0.8 mm
11:10 PM 57.9°F14.4°C 43.7°F6.5°C 59% 4.0 mph WNW6.4 kmh WNW 6.0 mph9.7 kmh 30.09 in1019.0 mb 0.00 in0.0 mm 0.00 in0.0 mm 0.03 in0.8 mm
11:15 PM 57.7°F14.3°C 43.9°F6.6°C 60% Calm Calm 6.0 mph9.7 kmh 30.09 in1019.0 mb 0.00 in0.0 mm 0.00 in0.0 mm 0.03 in0.8 mm
11:20 PM 57.3°F14.1°C 44.0°F6.7°C 61% 1.0 mph NW1.6 kmh NW 5.0 mph8.0 kmh 30.09 in1019.0 mb 0.00 in0.0 mm 0.00 in0.0 mm 0.03 in0.8 mm
11:25 PM 57.1°F13.9°C 43.8°F6.6°C 61% 1.0 mph WNW1.6 kmh WNW 5.0 mph8.0 kmh 30.09 in1019.0 mb 0.00 in0.0 mm 0.00 in0.0 mm 0.03 in0.8 mm
11:30 PM 57.0°F13.9°C 44.1°F6.7°C 62% Calm Calm 5.0 mph8.0 kmh 30.09 in1019.0 mb 0.00 in0.0 mm 0.00 in0.0 mm 0.03 in0.8 mm
11:35 PM 56.9°F13.8°C 44.0°F6.7°C 62% 1.0 mph WNW1.6 kmh WNW 5.0 mph8.0 kmh 30.09 in1019.0 mb 0.00 in0.0 mm 0.00 in0.0 mm 0.03 in0.8 mm
11:40 PM 56.8°F13.8°C 43.9°F6.6°C 62% 3.0 mph WNW4.8 kmh WNW 6.0 mph9.7 kmh 30.09 in1019.0 mb 0.00 in0.0 mm 0.00 in0.0 mm 0.03 in0.8 mm
11:45 PM 56.7°F13.7°C 43.8°F6.6°C 62% 3.0 mph WNW4.8 kmh WNW 6.0 mph9.7 kmh 30.09 in1019.0 mb 0.00 in0.0 mm 0.00 in0.0 mm 0.03 in0.8 mm
11:50 PM 56.5°F13.6°C 44.1°F6.7°C 63% 2.0 mph WNW3.2 kmh WNW 4.0 mph6.4 kmh 30.09 in1019.0 mb 0.00 in0.0 mm 0.00 in0.0 mm 0.03 in0.8 mm
11:55 PM 56.2°F13.4°C 44.2°F6.8°C 64% 3.0 mph WNW4.8 kmh WNW 4.0 mph6.4 kmh 30.09 in1019.0 mb 0.00 in0.0 mm 0.00 in0.0 mm 0.03 in0.8 mm